sensor_id;sensor_type;location;lat;lon;timestamp;P1;durP1;ratioP1;P2;durP2;ratioP2
63965;SDS011;50151;52.030;5.350;2023-10-19T00:00:49;9.63;;;6.47;;
63965;SDS011;50151;52.030;5.350;2023-10-19T00:03:17;8.13;;;6.00;;
63965;SDS011;50151;52.030;5.350;2023-10-19T00:05:45;7.70;;;5.88;;
63965;SDS011;50151;52.030;5.350;2023-10-19T00:08:13;7.60;;;5.80;;
63965;SDS011;50151;52.030;5.350;2023-10-19T00:10:50;7.20;;;5.90;;
63965;SDS011;50151;52.030;5.350;2023-10-19T00:13:37;11.10;;;6.95;;
63965;SDS011;50151;52.030;5.350;2023-10-19T00:16:08;7.28;;;6.10;;
63965;SDS011;50151;52.030;5.350;2023-10-19T00:18:43;7.30;;;6.05;;
63965;SDS011;50151;52.030;5.350;2023-10-19T00:21:11;8.88;;;6.35;;
63965;SDS011;50151;52.030;5.350;2023-10-19T00:23:50;7.68;;;6.03;;
63965;SDS011;50151;52.030;5.350;2023-10-19T00:26:22;7.72;;;6.07;;
63965;SDS011;50151;52.030;5.350;2023-10-19T00:28:55;8.45;;;6.65;;
63965;SDS011;50151;52.030;5.350;2023-10-19T00:31:23;9.73;;;6.90;;
63965;SDS011;50151;52.030;5.350;2023-10-19T00:34:00;8.10;;;6.70;;
63965;SDS011;50151;52.030;5.350;2023-10-19T00:36:27;9.68;;;7.10;;
63965;SDS011;50151;52.030;5.350;2023-10-19T00:38:57;10.88;;;6.75;;
63965;SDS011;50151;52.030;5.350;2023-10-19T00:41:26;8.50;;;6.80;;
63965;SDS011;50151;52.030;5.350;2023-10-19T00:43:56;11.90;;;7.75;;
63965;SDS011;50151;52.030;5.350;2023-10-19T00:46:26;11.52;;;7.32;;
63965;SDS011;50151;52.030;5.350;2023-10-19T00:48:59;8.27;;;7.03;;
63965;SDS011;50151;52.030;5.350;2023-10-19T00:51:29;9.70;;;7.82;;
63965;SDS011;50151;52.030;5.350;2023-10-19T00:54:00;9.40;;;7.18;;
63965;SDS011;50151;52.030;5.350;2023-10-19T00:56:34;11.65;;;7.60;;
63965;SDS011;50151;52.030;5.350;2023-10-19T00:59:02;10.50;;;8.07;;
63965;SDS011;50151;52.030;5.350;2023-10-19T01:01:41;11.93;;;7.78;;
63965;SDS011;50151;52.030;5.350;2023-10-19T01:04:11;11.48;;;7.72;;
63965;SDS011;50151;52.030;5.350;2023-10-19T01:06:41;9.77;;;8.35;;
63965;SDS011;50151;52.030;5.350;2023-10-19T01:09:24;11.38;;;8.40;;
63965;SDS011;50151;52.030;5.350;2023-10-19T01:11:53;12.63;;;8.75;;
63965;SDS011;50151;52.030;5.350;2023-10-19T01:14:20;12.57;;;8.30;;
63965;SDS011;50151;52.030;5.350;2023-10-19T01:16:48;11.27;;;8.27;;
63965;SDS011;50151;52.030;5.350;2023-10-19T01:19:16;11.93;;;8.32;;
63965;SDS011;50151;52.030;5.350;2023-10-19T01:21:46;10.88;;;7.88;;
63965;SDS011;50151;52.030;5.350;2023-10-19T01:24:20;12.57;;;8.02;;
63965;SDS011;50151;52.030;5.350;2023-10-19T01:27:00;11.55;;;8.57;;
63965;SDS011;50151;52.030;5.350;2023-10-19T01:29:26;9.15;;;7.65;;
63965;SDS011;50151;52.030;5.350;2023-10-19T01:31:53;11.48;;;8.60;;
63965;SDS011;50151;52.030;5.350;2023-10-19T01:34:31;12.02;;;8.38;;
63965;SDS011;50151;52.030;5.350;2023-10-19T01:36:59;10.70;;;7.60;;
63965;SDS011;50151;52.030;5.350;2023-10-19T01:39:33;9.88;;;8.15;;
63965;SDS011;50151;52.030;5.350;2023-10-19T01:42:03;10.57;;;8.52;;
63965;SDS011;50151;52.030;5.350;2023-10-19T01:44:34;11.18;;;8.20;;
63965;SDS011;50151;52.030;5.350;2023-10-19T01:47:02;12.73;;;8.57;;
63965;SDS011;50151;52.030;5.350;2023-10-19T01:49:32;14.10;;;8.50;;
63965;SDS011;50151;52.030;5.350;2023-10-19T01:51:59;11.65;;;8.57;;
63965;SDS011;50151;52.030;5.350;2023-10-19T01:54:27;15.32;;;7.82;;
63965;SDS011;50151;52.030;5.350;2023-10-19T01:56:54;14.75;;;8.45;;
63965;SDS011;50151;52.030;5.350;2023-10-19T01:59:23;10.40;;;7.80;;
63965;SDS011;50151;52.030;5.350;2023-10-19T02:01:54;10.13;;;7.75;;
63965;SDS011;50151;52.030;5.350;2023-10-19T02:04:21;10.35;;;7.22;;
63965;SDS011;50151;52.030;5.350;2023-10-19T02:06:48;10.98;;;7.47;;
63965;SDS011;50151;52.030;5.350;2023-10-19T02:09:16;11.35;;;7.63;;
63965;SDS011;50151;52.030;5.350;2023-10-19T02:11:45;9.93;;;7.15;;
63965;SDS011;50151;52.030;5.350;2023-10-19T02:14:13;10.40;;;7.80;;
63965;SDS011;50151;52.030;5.350;2023-10-19T02:16:45;9.70;;;6.88;;
63965;SDS011;50151;52.030;5.350;2023-10-19T02:19:13;11.55;;;7.00;;
63965;SDS011;50151;52.030;5.350;2023-10-19T02:21:41;11.63;;;7.43;;
63965;SDS011;50151;52.030;5.350;2023-10-19T02:24:08;11.02;;;6.97;;
63965;SDS011;50151;52.030;5.350;2023-10-19T02:26:38;9.57;;;6.85;;
63965;SDS011;50151;52.030;5.350;2023-10-19T02:29:06;9.02;;;6.38;;
63965;SDS011;50151;52.030;5.350;2023-10-19T02:31:34;10.65;;;5.90;;
63965;SDS011;50151;52.030;5.350;2023-10-19T02:34:06;9.23;;;6.47;;
63965;SDS011;50151;52.030;5.350;2023-10-19T02:36:36;10.40;;;6.53;;
63965;SDS011;50151;52.030;5.350;2023-10-19T02:39:08;10.70;;;6.28;;
63965;SDS011;50151;52.030;5.350;2023-10-19T02:41:36;10.82;;;6.55;;
63965;SDS011;50151;52.030;5.350;2023-10-19T02:44:04;9.80;;;6.03;;
63965;SDS011;50151;52.030;5.350;2023-10-19T02:46:37;8.98;;;5.82;;
63965;SDS011;50151;52.030;5.350;2023-10-19T02:49:05;12.57;;;6.30;;
63965;SDS011;50151;52.030;5.350;2023-10-19T02:51:38;7.60;;;5.85;;
63965;SDS011;50151;52.030;5.350;2023-10-19T02:54:08;14.07;;;6.25;;
63965;SDS011;50151;52.030;5.350;2023-10-19T02:56:42;10.35;;;6.35;;
63965;SDS011;50151;52.030;5.350;2023-10-19T02:59:09;12.48;;;5.68;;
63965;SDS011;50151;52.030;5.350;2023-10-19T03:01:37;12.30;;;6.20;;
63965;SDS011;50151;52.030;5.350;2023-10-19T03:04:05;8.40;;;5.85;;
63965;SDS011;50151;52.030;5.350;2023-10-19T03:06:31;11.85;;;6.13;;
63965;SDS011;50151;52.030;5.350;2023-10-19T03:09:05;8.43;;;5.65;;
63965;SDS011;50151;52.030;5.350;2023-10-19T03:11:48;21.77;;;5.75;;
63965;SDS011;50151;52.030;5.350;2023-10-19T03:14:20;9.95;;;5.63;;
63965;SDS011;50151;52.030;5.350;2023-10-19T03:16:51;12.25;;;5.75;;
63965;SDS011;50151;52.030;5.350;2023-10-19T03:19:21;10.57;;;5.28;;
63965;SDS011;50151;52.030;5.350;2023-10-19T03:21:48;7.78;;;5.25;;
63965;SDS011;50151;52.030;5.350;2023-10-19T03:24:15;6.88;;;4.53;;
63965;SDS011;50151;52.030;5.350;2023-10-19T03:26:50;9.43;;;4.90;;
63965;SDS011;50151;52.030;5.350;2023-10-19T03:29:17;7.57;;;4.95;;
63965;SDS011;50151;52.030;5.350;2023-10-19T03:31:57;10.75;;;5.00;;
63965;SDS011;50151;52.030;5.350;2023-10-19T03:34:27;10.25;;;5.10;;
63965;SDS011;50151;52.030;5.350;2023-10-19T03:36:59;11.10;;;4.85;;
63965;SDS011;50151;52.030;5.350;2023-10-19T03:39:34;11.95;;;5.07;;
63965;SDS011;50151;52.030;5.350;2023-10-19T03:42:04;8.68;;;4.43;;
63965;SDS011;50151;52.030;5.350;2023-10-19T03:44:40;9.52;;;4.43;;
63965;SDS011;50151;52.030;5.350;2023-10-19T03:47:16;9.32;;;4.18;;
63965;SDS011;50151;52.030;5.350;2023-10-19T03:50:02;4.30;;;3.50;;
63965;SDS011;50151;52.030;5.350;2023-10-19T03:52:36;8.77;;;3.88;;
63965;SDS011;50151;52.030;5.350;2023-10-19T03:55:07;4.82;;;3.67;;
63965;SDS011;50151;52.030;5.350;2023-10-19T03:57:49;8.18;;;3.63;;
63965;SDS011;50151;52.030;5.350;2023-10-19T04:00:21;7.18;;;3.55;;
63965;SDS011;50151;52.030;5.350;2023-10-19T04:02:52;4.28;;;2.90;;
63965;SDS011;50151;52.030;5.350;2023-10-19T04:05:25;6.03;;;2.60;;
63965;SDS011;50151;52.030;5.350;2023-10-19T04:07:54;3.92;;;2.60;;
63965;SDS011;50151;52.030;5.350;2023-10-19T04:10:23;5.93;;;2.30;;
63965;SDS011;50151;52.030;5.350;2023-10-19T04:12:58;4.47;;;2.30;;
63965;SDS011;50151;52.030;5.350;2023-10-19T04:15:29;6.05;;;2.03;;
63965;SDS011;50151;52.030;5.350;2023-10-19T04:17:56;3.45;;;1.80;;
63965;SDS011;50151;52.030;5.350;2023-10-19T04:20:26;6.30;;;1.60;;
63965;SDS011;50151;52.030;5.350;2023-10-19T04:23:08;3.42;;;1.20;;
63965;SDS011;50151;52.030;5.350;2023-10-19T04:25:42;4.53;;;1.27;;
63965;SDS011;50151;52.030;5.350;2023-10-19T04:28:12;4.85;;;1.45;;
63965;SDS011;50151;52.030;5.350;2023-10-19T04:30:43;6.20;;;1.80;;
63965;SDS011;50151;52.030;5.350;2023-10-19T04:33:10;7.07;;;1.40;;
63965;SDS011;50151;52.030;5.350;2023-10-19T04:35:37;3.35;;;1.30;;
63965;SDS011;50151;52.030;5.350;2023-10-19T04:38:04;8.85;;;1.20;;
63965;SDS011;50151;52.030;5.350;2023-10-19T04:40:32;4.05;;;0.85;;
63965;SDS011;50151;52.030;5.350;2023-10-19T04:43:01;4.50;;;1.17;;
63965;SDS011;50151;52.030;5.350;2023-10-19T04:45:32;5.28;;;1.20;;
63965;SDS011;50151;52.030;5.350;2023-10-19T04:47:58;5.38;;;1.42;;
63965;SDS011;50151;52.030;5.350;2023-10-19T04:50:25;4.22;;;1.20;;
63965;SDS011;50151;52.030;5.350;2023-10-19T04:52:52;2.88;;;0.82;;
63965;SDS011;50151;52.030;5.350;2023-10-19T04:55:18;3.28;;;0.85;;
63965;SDS011;50151;52.030;5.350;2023-10-19T04:57:45;6.50;;;1.08;;
63965;SDS011;50151;52.030;5.350;2023-10-19T05:00:13;3.25;;;0.85;;
63965;SDS011;50151;52.030;5.350;2023-10-19T05:02:41;4.00;;;0.80;;
63965;SDS011;50151;52.030;5.350;2023-10-19T05:05:08;5.95;;;0.80;;
63965;SDS011;50151;52.030;5.350;2023-10-19T05:07:36;2.42;;;0.70;;
63965;SDS011;50151;52.030;5.350;2023-10-19T05:10:03;6.95;;;0.85;;
63965;SDS011;50151;52.030;5.350;2023-10-19T05:12:31;7.00;;;0.73;;
63965;SDS011;50151;52.030;5.350;2023-10-19T05:14:58;2.15;;;0.90;;
63965;SDS011;50151;52.030;5.350;2023-10-19T05:17:25;7.00;;;0.75;;
63965;SDS011;50151;52.030;5.350;2023-10-19T05:19:53;2.60;;;0.80;;
63965;SDS011;50151;52.030;5.350;2023-10-19T05:22:20;1.45;;;0.70;;
63965;SDS011;50151;52.030;5.350;2023-10-19T05:24:48;3.25;;;0.80;;
63965;SDS011;50151;52.030;5.350;2023-10-19T05:27:14;3.67;;;1.00;;
63965;SDS011;50151;52.030;5.350;2023-10-19T05:29:42;4.10;;;0.90;;
63965;SDS011;50151;52.030;5.350;2023-10-19T05:32:09;3.92;;;0.98;;
63965;SDS011;50151;52.030;5.350;2023-10-19T05:34:36;3.40;;;0.90;;
63965;SDS011;50151;52.030;5.350;2023-10-19T05:37:03;6.85;;;1.10;;
63965;SDS011;50151;52.030;5.350;2023-10-19T05:39:31;3.25;;;0.90;;
63965;SDS011;50151;52.030;5.350;2023-10-19T05:42:00;5.60;;;1.05;;
63965;SDS011;50151;52.030;5.350;2023-10-19T05:44:28;5.53;;;1.10;;
63965;SDS011;50151;52.030;5.350;2023-10-19T05:46:57;4.55;;;0.88;;
63965;SDS011;50151;52.030;5.350;2023-10-19T05:49:25;8.90;;;1.00;;
63965;SDS011;50151;52.030;5.350;2023-10-19T05:51:52;5.50;;;1.02;;
63965;SDS011;50151;52.030;5.350;2023-10-19T05:54:18;7.50;;;0.98;;
63965;SDS011;50151;52.030;5.350;2023-10-19T05:56:45;4.50;;;0.88;;
63965;SDS011;50151;52.030;5.350;2023-10-19T05:59:12;6.35;;;1.15;;
63965;SDS011;50151;52.030;5.350;2023-10-19T06:01:39;5.15;;;0.93;;
63965;SDS011;50151;52.030;5.350;2023-10-19T06:04:13;3.17;;;0.70;;
63965;SDS011;50151;52.030;5.350;2023-10-19T06:06:39;4.30;;;0.90;;
63965;SDS011;50151;52.030;5.350;2023-10-19T06:09:06;9.07;;;1.20;;
63965;SDS011;50151;52.030;5.350;2023-10-19T06:11:36;6.00;;;1.05;;
63965;SDS011;50151;52.030;5.350;2023-10-19T06:14:09;2.85;;;0.90;;
63965;SDS011;50151;52.030;5.350;2023-10-19T06:16:36;5.10;;;0.98;;
63965;SDS011;50151;52.030;5.350;2023-10-19T06:19:03;3.72;;;1.00;;
63965;SDS011;50151;52.030;5.350;2023-10-19T06:21:30;2.83;;;0.80;;
63965;SDS011;50151;52.030;5.350;2023-10-19T06:23:58;2.55;;;0.90;;
63965;SDS011;50151;52.030;5.350;2023-10-19T06:26:25;5.05;;;1.10;;
63965;SDS011;50151;52.030;5.350;2023-10-19T06:28:52;7.47;;;1.23;;
63965;SDS011;50151;52.030;5.350;2023-10-19T06:31:23;5.47;;;1.45;;
63965;SDS011;50151;52.030;5.350;2023-10-19T06:33:50;6.25;;;1.20;;
63965;SDS011;50151;52.030;5.350;2023-10-19T06:36:18;8.88;;;1.20;;
63965;SDS011;50151;52.030;5.350;2023-10-19T06:38:45;5.40;;;1.10;;
63965;SDS011;50151;52.030;5.350;2023-10-19T06:41:12;5.20;;;1.02;;
63965;SDS011;50151;52.030;5.350;2023-10-19T06:43:40;4.53;;;1.23;;
63965;SDS011;50151;52.030;5.350;2023-10-19T06:46:07;4.32;;;1.23;;
63965;SDS011;50151;52.030;5.350;2023-10-19T06:48:38;3.95;;;1.20;;
63965;SDS011;50151;52.030;5.350;2023-10-19T06:51:05;14.77;;;1.40;;
63965;SDS011;50151;52.030;5.350;2023-10-19T06:53:33;5.28;;;1.40;;
63965;SDS011;50151;52.030;5.350;2023-10-19T06:56:00;6.68;;;1.48;;
63965;SDS011;50151;52.030;5.350;2023-10-19T06:58:27;6.80;;;1.50;;
63965;SDS011;50151;52.030;5.350;2023-10-19T07:00:54;8.93;;;1.30;;
63965;SDS011;50151;52.030;5.350;2023-10-19T07:03:26;3.83;;;1.40;;
63965;SDS011;50151;52.030;5.350;2023-10-19T07:05:54;3.75;;;1.30;;
63965;SDS011;50151;52.030;5.350;2023-10-19T07:08:22;6.13;;;1.50;;
63965;SDS011;50151;52.030;5.350;2023-10-19T07:10:49;4.97;;;1.60;;
63965;SDS011;50151;52.030;5.350;2023-10-19T07:13:16;10.38;;;1.55;;
63965;SDS011;50151;52.030;5.350;2023-10-19T07:15:46;3.22;;;1.30;;
63965;SDS011;50151;52.030;5.350;2023-10-19T07:18:15;4.88;;;1.35;;
63965;SDS011;50151;52.030;5.350;2023-10-19T07:20:43;5.05;;;1.25;;
63965;SDS011;50151;52.030;5.350;2023-10-19T07:23:14;6.45;;;1.50;;
63965;SDS011;50151;52.030;5.350;2023-10-19T07:25:53;13.02;;;1.42;;
63965;SDS011;50151;52.030;5.350;2023-10-19T07:28:26;5.22;;;1.38;;
63965;SDS011;50151;52.030;5.350;2023-10-19T07:30:53;4.50;;;1.10;;
63965;SDS011;50151;52.030;5.350;2023-10-19T07:33:20;7.70;;;1.40;;
63965;SDS011;50151;52.030;5.350;2023-10-19T07:35:47;6.32;;;1.38;;
63965;SDS011;50151;52.030;5.350;2023-10-19T07:38:21;8.13;;;1.65;;
63965;SDS011;50151;52.030;5.350;2023-10-19T07:40:49;12.30;;;1.95;;
63965;SDS011;50151;52.030;5.350;2023-10-19T07:43:19;8.00;;;1.73;;
63965;SDS011;50151;52.030;5.350;2023-10-19T07:45:47;6.95;;;1.60;;
63965;SDS011;50151;52.030;5.350;2023-10-19T07:48:14;12.38;;;1.58;;
63965;SDS011;50151;52.030;5.350;2023-10-19T07:50:41;10.60;;;1.50;;
63965;SDS011;50151;52.030;5.350;2023-10-19T07:53:08;4.22;;;1.20;;
63965;SDS011;50151;52.030;5.350;2023-10-19T07:55:36;7.95;;;1.45;;
63965;SDS011;50151;52.030;5.350;2023-10-19T07:58:05;6.22;;;1.40;;
63965;SDS011;50151;52.030;5.350;2023-10-19T08:00:35;7.68;;;1.42;;
63965;SDS011;50151;52.030;5.350;2023-10-19T08:03:02;8.38;;;1.58;;
63965;SDS011;50151;52.030;5.350;2023-10-19T08:05:31;3.90;;;1.23;;
63965;SDS011;50151;52.030;5.350;2023-10-19T08:07:58;10.40;;;1.63;;
63965;SDS011;50151;52.030;5.350;2023-10-19T08:10:26;5.18;;;1.67;;
63965;SDS011;50151;52.030;5.350;2023-10-19T08:12:53;18.17;;;2.40;;
63965;SDS011;50151;52.030;5.350;2023-10-19T08:15:21;5.85;;;1.70;;
63965;SDS011;50151;52.030;5.350;2023-10-19T08:17:48;8.60;;;1.60;;
63965;SDS011;50151;52.030;5.350;2023-10-19T08:20:17;10.15;;;1.80;;
63965;SDS011;50151;52.030;5.350;2023-10-19T08:22:51;4.50;;;1.13;;
63965;SDS011;50151;52.030;5.350;2023-10-19T08:25:19;9.40;;;1.92;;
63965;SDS011;50151;52.030;5.350;2023-10-19T08:27:47;7.68;;;1.55;;
63965;SDS011;50151;52.030;5.350;2023-10-19T08:30:20;8.07;;;1.38;;
63965;SDS011;50151;52.030;5.350;2023-10-19T08:32:51;9.02;;;1.52;;
63965;SDS011;50151;52.030;5.350;2023-10-19T08:35:20;8.00;;;1.60;;
63965;SDS011;50151;52.030;5.350;2023-10-19T08:37:51;8.25;;;1.50;;
63965;SDS011;50151;52.030;5.350;2023-10-19T08:40:19;10.13;;;1.40;;
63965;SDS011;50151;52.030;5.350;2023-10-19T08:42:47;6.82;;;1.40;;
63965;SDS011;50151;52.030;5.350;2023-10-19T08:45:15;12.32;;;1.58;;
63965;SDS011;50151;52.030;5.350;2023-10-19T08:50:28;12.02;;;1.73;;
63965;SDS011;50151;52.030;5.350;2023-10-19T08:53:00;7.03;;;1.55;;
63965;SDS011;50151;52.030;5.350;2023-10-19T08:55:31;9.63;;;1.63;;
63965;SDS011;50151;52.030;5.350;2023-10-19T08:58:15;4.68;;;1.48;;
63965;SDS011;50151;52.030;5.350;2023-10-19T09:00:51;7.78;;;1.90;;
63965;SDS011;50151;52.030;5.350;2023-10-19T09:03:22;9.02;;;2.03;;
63965;SDS011;50151;52.030;5.350;2023-10-19T09:05:51;10.02;;;2.40;;
63965;SDS011;50151;52.030;5.350;2023-10-19T09:08:18;10.02;;;2.00;;
63965;SDS011;50151;52.030;5.350;2023-10-19T09:10:48;10.32;;;2.05;;
63965;SDS011;50151;52.030;5.350;2023-10-19T09:13:18;7.80;;;2.00;;
63965;SDS011;50151;52.030;5.350;2023-10-19T09:15:46;13.70;;;2.20;;
63965;SDS011;50151;52.030;5.350;2023-10-19T09:18:22;11.10;;;1.98;;
63965;SDS011;50151;52.030;5.350;2023-10-19T09:20:52;9.45;;;1.73;;
63965;SDS011;50151;52.030;5.350;2023-10-19T09:23:20;16.17;;;2.58;;
63965;SDS011;50151;52.030;5.350;2023-10-19T09:25:51;12.07;;;2.35;;
63965;SDS011;50151;52.030;5.350;2023-10-19T09:28:19;6.60;;;2.33;;
63965;SDS011;50151;52.030;5.350;2023-10-19T09:30:48;10.10;;;2.30;;
63965;SDS011;50151;52.030;5.350;2023-10-19T09:33:15;10.10;;;2.22;;
63965;SDS011;50151;52.030;5.350;2023-10-19T09:35:45;11.23;;;2.38;;
63965;SDS011;50151;52.030;5.350;2023-10-19T09:38:15;5.55;;;2.10;;
63965;SDS011;50151;52.030;5.350;2023-10-19T09:40:42;7.65;;;1.90;;
63965;SDS011;50151;52.030;5.350;2023-10-19T09:43:12;12.18;;;2.13;;
63965;SDS011;50151;52.030;5.350;2023-10-19T09:45:43;14.75;;;2.72;;
63965;SDS011;50151;52.030;5.350;2023-10-19T09:48:16;9.67;;;2.27;;
63965;SDS011;50151;52.030;5.350;2023-10-19T09:50:45;8.98;;;2.35;;
63965;SDS011;50151;52.030;5.350;2023-10-19T09:53:27;11.77;;;2.53;;
63965;SDS011;50151;52.030;5.350;2023-10-19T09:55:58;7.60;;;2.38;;
63965;SDS011;50151;52.030;5.350;2023-10-19T09:58:31;9.50;;;2.10;;
63965;SDS011;50151;52.030;5.350;2023-10-19T10:01:05;13.98;;;2.15;;
63965;SDS011;50151;52.030;5.350;2023-10-19T10:06:09;7.35;;;2.10;;
63965;SDS011;50151;52.030;5.350;2023-10-19T10:08:38;11.35;;;2.30;;
63965;SDS011;50151;52.030;5.350;2023-10-19T10:11:17;9.55;;;2.10;;
63965;SDS011;50151;52.030;5.350;2023-10-19T10:13:45;7.47;;;1.92;;
63965;SDS011;50151;52.030;5.350;2023-10-19T10:16:17;6.70;;;2.13;;
63965;SDS011;50151;52.030;5.350;2023-10-19T10:18:46;9.18;;;2.40;;
63965;SDS011;50151;52.030;5.350;2023-10-19T10:21:15;9.73;;;2.20;;
63965;SDS011;50151;52.030;5.350;2023-10-19T10:23:43;9.57;;;2.13;;
63965;SDS011;50151;52.030;5.350;2023-10-19T10:26:14;11.57;;;2.58;;
63965;SDS011;50151;52.030;5.350;2023-10-19T10:28:46;11.40;;;2.33;;
63965;SDS011;50151;52.030;5.350;2023-10-19T10:31:19;8.93;;;2.40;;
63965;SDS011;50151;52.030;5.350;2023-10-19T10:33:48;8.02;;;2.15;;
63965;SDS011;50151;52.030;5.350;2023-10-19T10:36:21;11.30;;;2.47;;
63965;SDS011;50151;52.030;5.350;2023-10-19T10:38:51;9.77;;;2.25;;
63965;SDS011;50151;52.030;5.350;2023-10-19T10:41:21;12.77;;;2.33;;
63965;SDS011;50151;52.030;5.350;2023-10-19T10:43:55;10.52;;;2.28;;
63965;SDS011;50151;52.030;5.350;2023-10-19T10:46:24;10.40;;;2.20;;
63965;SDS011;50151;52.030;5.350;2023-10-19T10:48:52;10.20;;;2.28;;
63965;SDS011;50151;52.030;5.350;2023-10-19T10:51:19;14.40;;;2.50;;
63965;SDS011;50151;52.030;5.350;2023-10-19T10:53:48;12.38;;;2.60;;
63965;SDS011;50151;52.030;5.350;2023-10-19T10:56:16;8.80;;;2.28;;
63965;SDS011;50151;52.030;5.350;2023-10-19T10:58:44;12.65;;;2.30;;
63965;SDS011;50151;52.030;5.350;2023-10-19T11:01:11;9.57;;;2.35;;
63965;SDS011;50151;52.030;5.350;2023-10-19T11:03:42;12.43;;;2.05;;
63965;SDS011;50151;52.030;5.350;2023-10-19T11:06:09;15.43;;;2.35;;
63965;SDS011;50151;52.030;5.350;2023-10-19T11:08:37;11.00;;;2.35;;
63965;SDS011;50151;52.030;5.350;2023-10-19T11:11:06;13.32;;;2.50;;
63965;SDS011;50151;52.030;5.350;2023-10-19T11:13:39;9.00;;;2.00;;
63965;SDS011;50151;52.030;5.350;2023-10-19T11:16:06;17.05;;;2.60;;
63965;SDS011;50151;52.030;5.350;2023-10-19T11:21:06;6.80;;;1.63;;
63965;SDS011;50151;52.030;5.350;2023-10-19T11:26:03;10.18;;;1.85;;
63965;SDS011;50151;52.030;5.350;2023-10-19T11:28:31;9.80;;;1.75;;
63965;SDS011;50151;52.030;5.350;2023-10-19T11:33:40;11.55;;;1.85;;
63965;SDS011;50151;52.030;5.350;2023-10-19T11:36:10;13.02;;;2.05;;
63965;SDS011;50151;52.030;5.350;2023-10-19T11:38:40;10.15;;;1.80;;
63965;SDS011;50151;52.030;5.350;2023-10-19T11:41:08;11.00;;;1.98;;
63965;SDS011;50151;52.030;5.350;2023-10-19T11:43:35;18.63;;;1.90;;
63965;SDS011;50151;52.030;5.350;2023-10-19T11:46:02;5.63;;;1.67;;
63965;SDS011;50151;52.030;5.350;2023-10-19T11:48:36;14.52;;;2.13;;
63965;SDS011;50151;52.030;5.350;2023-10-19T11:51:03;9.55;;;1.77;;
63965;SDS011;50151;52.030;5.350;2023-10-19T11:53:34;7.93;;;1.58;;
63965;SDS011;50151;52.030;5.350;2023-10-19T11:56:03;19.85;;;2.08;;
63965;SDS011;50151;52.030;5.350;2023-10-19T11:58:32;12.63;;;1.83;;
63965;SDS011;50151;52.030;5.350;2023-10-19T12:01:01;16.60;;;2.45;;
63965;SDS011;50151;52.030;5.350;2023-10-19T12:03:43;14.02;;;2.25;;
63965;SDS011;50151;52.030;5.350;2023-10-19T12:06:12;10.05;;;1.70;;
63965;SDS011;50151;52.030;5.350;2023-10-19T12:08:45;10.27;;;1.98;;
63965;SDS011;50151;52.030;5.350;2023-10-19T12:11:12;11.52;;;1.80;;
63965;SDS011;50151;52.030;5.350;2023-10-19T12:13:43;9.48;;;2.00;;
63965;SDS011;50151;52.030;5.350;2023-10-19T12:16:10;14.48;;;1.80;;
63965;SDS011;50151;52.030;5.350;2023-10-19T12:18:42;7.97;;;1.83;;
63965;SDS011;50151;52.030;5.350;2023-10-19T12:21:10;12.45;;;1.88;;
63965;SDS011;50151;52.030;5.350;2023-10-19T12:23:40;9.90;;;2.28;;
63965;SDS011;50151;52.030;5.350;2023-10-19T12:26:08;11.32;;;1.83;;
63965;SDS011;50151;52.030;5.350;2023-10-19T12:28:38;12.63;;;1.70;;
63965;SDS011;50151;52.030;5.350;2023-10-19T12:31:07;9.68;;;1.92;;
63965;SDS011;50151;52.030;5.350;2023-10-19T12:33:37;10.68;;;2.25;;
63965;SDS011;50151;52.030;5.350;2023-10-19T12:36:05;10.15;;;2.40;;
63965;SDS011;50151;52.030;5.350;2023-10-19T12:38:50;10.48;;;2.25;;
63965;SDS011;50151;52.030;5.350;2023-10-19T12:41:18;12.10;;;1.92;;
63965;SDS011;50151;52.030;5.350;2023-10-19T12:43:45;12.48;;;2.10;;
63965;SDS011;50151;52.030;5.350;2023-10-19T12:46:13;13.10;;;2.10;;
63965;SDS011;50151;52.030;5.350;2023-10-19T12:48:40;8.63;;;2.00;;
63965;SDS011;50151;52.030;5.350;2023-10-19T12:51:07;9.80;;;1.60;;
63965;SDS011;50151;52.030;5.350;2023-10-19T12:53:35;13.40;;;2.22;;
63965;SDS011;50151;52.030;5.350;2023-10-19T12:56:03;13.02;;;2.80;;
63965;SDS011;50151;52.030;5.350;2023-10-19T12:58:30;11.73;;;1.95;;
63965;SDS011;50151;52.030;5.350;2023-10-19T13:00:58;13.68;;;2.60;;
63965;SDS011;50151;52.030;5.350;2023-10-19T13:03:25;12.88;;;2.40;;
63965;SDS011;50151;52.030;5.350;2023-10-19T13:05:58;11.75;;;2.20;;
63965;SDS011;50151;52.030;5.350;2023-10-19T13:08:24;12.25;;;2.25;;
63965;SDS011;50151;52.030;5.350;2023-10-19T13:10:54;8.73;;;2.00;;
63965;SDS011;50151;52.030;5.350;2023-10-19T13:13:33;11.05;;;2.83;;
63965;SDS011;50151;52.030;5.350;2023-10-19T13:16:02;10.38;;;2.10;;
63965;SDS011;50151;52.030;5.350;2023-10-19T13:18:32;14.52;;;2.78;;
63965;SDS011;50151;52.030;5.350;2023-10-19T13:21:01;14.15;;;2.50;;
63965;SDS011;50151;52.030;5.350;2023-10-19T13:23:31;14.48;;;2.70;;
63965;SDS011;50151;52.030;5.350;2023-10-19T13:26:05;15.23;;;2.50;;
63965;SDS011;50151;52.030;5.350;2023-10-19T13:28:46;14.77;;;2.22;;
63965;SDS011;50151;52.030;5.350;2023-10-19T13:31:13;10.40;;;2.20;;
63965;SDS011;50151;52.030;5.350;2023-10-19T13:33:41;12.70;;;2.67;;
63965;SDS011;50151;52.030;5.350;2023-10-19T13:36:08;11.00;;;2.42;;
63965;SDS011;50151;52.030;5.350;2023-10-19T13:38:34;7.70;;;2.30;;
63965;SDS011;50151;52.030;5.350;2023-10-19T13:41:04;19.35;;;2.70;;
63965;SDS011;50151;52.030;5.350;2023-10-19T13:43:40;11.18;;;2.20;;
63965;SDS011;50151;52.030;5.350;2023-10-19T13:46:10;13.25;;;2.30;;
63965;SDS011;50151;52.030;5.350;2023-10-19T13:48:37;9.20;;;2.30;;
63965;SDS011;50151;52.030;5.350;2023-10-19T13:51:06;14.73;;;2.22;;
63965;SDS011;50151;52.030;5.350;2023-10-19T13:53:39;11.77;;;2.63;;
63965;SDS011;50151;52.030;5.350;2023-10-19T13:56:09;15.95;;;2.78;;
63965;SDS011;50151;52.030;5.350;2023-10-19T13:58:37;13.05;;;2.22;;
63965;SDS011;50151;52.030;5.350;2023-10-19T14:01:08;14.98;;;2.47;;
63965;SDS011;50151;52.030;5.350;2023-10-19T14:03:36;11.75;;;2.53;;
63965;SDS011;50151;52.030;5.350;2023-10-19T14:06:04;11.23;;;2.50;;
63965;SDS011;50151;52.030;5.350;2023-10-19T14:08:32;11.27;;;2.10;;
63965;SDS011;50151;52.030;5.350;2023-10-19T14:11:02;11.93;;;2.25;;
63965;SDS011;50151;52.030;5.350;2023-10-19T14:13:30;12.05;;;2.40;;
63965;SDS011;50151;52.030;5.350;2023-10-19T14:15:58;14.82;;;2.67;;
63965;SDS011;50151;52.030;5.350;2023-10-19T14:18:24;12.70;;;2.10;;
63965;SDS011;50151;52.030;5.350;2023-10-19T14:20:51;15.07;;;3.30;;
63965;SDS011;50151;52.030;5.350;2023-10-19T14:23:18;13.73;;;2.40;;
63965;SDS011;50151;52.030;5.350;2023-10-19T14:25:44;12.00;;;2.40;;
63965;SDS011;50151;52.030;5.350;2023-10-19T14:28:11;11.50;;;2.17;;
63965;SDS011;50151;52.030;5.350;2023-10-19T14:30:38;11.68;;;2.47;;
63965;SDS011;50151;52.030;5.350;2023-10-19T14:33:05;11.32;;;2.90;;
63965;SDS011;50151;52.030;5.350;2023-10-19T14:35:37;17.33;;;2.35;;
63965;SDS011;50151;52.030;5.350;2023-10-19T14:38:10;7.70;;;1.95;;
63965;SDS011;50151;52.030;5.350;2023-10-19T14:40:40;11.77;;;2.33;;
63965;SDS011;50151;52.030;5.350;2023-10-19T14:43:11;15.50;;;2.75;;
63965;SDS011;50151;52.030;5.350;2023-10-19T14:45:39;12.13;;;3.58;;
63965;SDS011;50151;52.030;5.350;2023-10-19T14:48:07;14.68;;;2.47;;
63965;SDS011;50151;52.030;5.350;2023-10-19T14:50:36;16.13;;;2.28;;
63965;SDS011;50151;52.030;5.350;2023-10-19T14:53:03;13.23;;;2.35;;
63965;SDS011;50151;52.030;5.350;2023-10-19T14:55:30;10.48;;;2.22;;
63965;SDS011;50151;52.030;5.350;2023-10-19T14:57:57;8.18;;;2.00;;
63965;SDS011;50151;52.030;5.350;2023-10-19T15:00:26;18.50;;;3.17;;
63965;SDS011;50151;52.030;5.350;2023-10-19T15:02:53;12.57;;;2.42;;
63965;SDS011;50151;52.030;5.350;2023-10-19T15:07:54;8.73;;;2.15;;
63965;SDS011;50151;52.030;5.350;2023-10-19T15:10:22;10.50;;;2.40;;